Time;durP1;ratioP1;P1;durP2;ratioP2;P2;SDS_P1;SDS_P2;PMS_P1;PMS_P2;Temp;Humidity;BMP_temperature;BMP_pressure;BME280_temperature;BME280_humidity;BME280_pressure;Samples;Min_cycle;Max_cycle;Signal;HPM_P1;HPM_P2
2022/01/29 00:01:58;;;;;;;77.15;28.23;;;;;;;5.87;100.00;103089.03;5261263;28;20011;-83
2022/01/29 00:04:29;;;;;;;70.50;25.67;;;;;;;5.85;100.00;103074.94;5274311;28;20023;-83
2022/01/29 00:07:00;;;;;;;64.00;25.30;;;;;;;5.85;100.00;103072.28;5292433;28;20110;-83
2022/01/29 00:09:30;;;;;;;74.38;26.73;;;;;;;5.81;100.00;103068.91;5274510;28;20085;-82
2022/01/29 00:12:01;;;;;;;68.70;25.55;;;;;;;5.77;100.00;103070.00;5275062;28;20072;-84
2022/01/29 00:14:31;;;;;;;68.50;25.48;;;;;;;5.76;100.00;103062.97;5257545;28;20028;-82
2022/01/29 00:17:02;;;;;;;71.10;26.13;;;;;;;5.84;100.00;103065.25;5291509;28;20085;-83
2022/01/29 00:19:32;;;;;;;70.25;25.75;;;;;;;5.82;100.00;103049.31;5256984;28;20035;-82
2022/01/29 00:22:03;;;;;;;72.72;26.35;;;;;;;5.79;100.00;103056.63;5274867;28;20027;-83
2022/01/29 00:24:34;;;;;;;70.20;26.10;;;;;;;5.79;100.00;103043.31;5278142;28;20156;-83
2022/01/29 00:27:09;;;;;;;77.63;27.58;;;;;;;5.79;100.00;103035.31;5272383;28;20022;-81
2022/01/29 00:29:42;;;;;;;71.25;26.38;;;;;;;5.72;100.00;103032.09;5271686;28;20023;-80
2022/01/29 00:32:12;;;;;;;74.28;25.85;;;;;;;5.75;100.00;103037.28;5261218;28;20024;-81
2022/01/29 00:34:43;;;;;;;71.65;25.88;;;;;;;5.78;100.00;103020.28;5290042;28;20406;-80
2022/01/29 00:37:14;;;;;;;82.40;26.13;;;;;;;5.79;100.00;103016.69;5290314;28;20058;-80
2022/01/29 00:39:44;;;;;;;73.00;26.50;;;;;;;5.70;100.00;103021.53;5290274;28;20051;-80
2022/01/29 00:42:15;;;;;;;70.10;24.80;;;;;;;5.70;100.00;103029.53;5272201;28;20032;-80
2022/01/29 00:44:45;;;;;;;69.53;26.58;;;;;;;5.71;100.00;103019.75;5272480;28;20019;-80
2022/01/29 00:47:16;;;;;;;74.10;26.48;;;;;;;5.75;100.00;103012.44;5290374;28;20031;-80
2022/01/29 00:49:47;;;;;;;72.80;25.75;;;;;;;5.70;100.00;103010.03;5290502;28;20027;-81
2022/01/29 00:52:17;;;;;;;73.50;26.83;;;;;;;5.69;100.00;103000.34;5290222;28;20011;-80
2022/01/29 00:54:48;;;;;;;74.85;26.92;;;;;;;5.67;100.00;103004.84;5272157;28;20030;-81
2022/01/29 00:57:18;;;;;;;81.90;29.17;;;;;;;5.60;100.00;103008.81;5291346;28;20030;-79
2022/01/29 00:59:49;;;;;;;78.85;27.63;;;;;;;5.63;100.00;103003.31;5254234;28;20066;-81
2022/01/29 01:02:19;;;;;;;79.82;27.95;;;;;;;5.53;100.00;103002.94;5265247;28;20043;-80
2022/01/29 01:04:50;;;;;;;84.90;27.58;;;;;;;5.51;100.00;102996.81;5287460;28;20024;-80
2022/01/29 01:07:20;;;;;;;84.35;28.75;;;;;;;5.48;100.00;102993.50;5288207;28;20027;-80
2022/01/29 01:09:51;;;;;;;89.53;28.75;;;;;;;5.43;100.00;102986.59;5288687;28;20051;-81
2022/01/29 01:12:21;;;;;;;82.47;28.17;;;;;;;5.44;100.00;102990.97;5288978;28;20027;-81
2022/01/29 01:14:52;;;;;;;84.38;28.58;;;;;;;5.42;100.00;102992.88;5288572;28;20026;-81
2022/01/29 01:17:22;;;;;;;98.55;30.25;;;;;;;5.39;100.00;102974.38;5270444;28;20111;-81
2022/01/29 01:19:53;;;;;;;84.90;28.20;;;;;;;5.40;100.00;102970.78;5270248;28;20023;-81
2022/01/29 01:22:23;;;;;;;85.68;29.42;;;;;;;5.36;100.00;102953.25;5270742;28;20024;-81
2022/01/29 01:24:53;;;;;;;92.03;29.88;;;;;;;5.38;100.00;102953.19;5270245;28;20020;-81
2022/01/29 01:27:24;;;;;;;86.10;27.45;;;;;;;5.43;100.00;102949.31;5253231;28;20018;-81
2022/01/29 01:29:55;;;;;;;85.22;29.35;;;;;;;5.41;100.00;102950.34;5268186;28;20027;-80
2022/01/29 01:32:25;;;;;;;89.53;28.77;;;;;;;5.46;100.00;102940.31;5274544;28;20075;-79
2022/01/29 01:35:06;;;;;;;90.95;28.90;;;;;;;5.46;100.00;102934.97;5285807;28;20458;-79
2022/01/29 01:37:45;;;;;;;91.82;29.92;;;;;;;5.47;100.00;102936.69;5272886;28;20375;-79
2022/01/29 01:40:16;;;;;;;87.45;29.60;;;;;;;5.50;100.00;102938.34;5286374;28;20086;-81
2022/01/29 01:42:47;;;;;;;91.47;29.23;;;;;;;5.50;100.00;102938.34;5268314;28;20031;-80
2022/01/29 01:45:17;;;;;;;95.00;31.15;;;;;;;5.50;100.00;102935.69;5267485;28;20073;-81
2022/01/29 01:47:48;;;;;;;94.43;29.55;;;;;;;5.49;100.00;102931.31;5251005;28;20027;-80
2022/01/29 01:50:20;;;;;;;91.97;30.00;;;;;;;5.45;100.00;102931.47;5285483;28;20023;-81
2022/01/29 01:52:51;;;;;;;92.82;26.95;;;;;;;5.54;100.00;102916.81;5267358;28;20212;-80
2022/01/29 01:55:22;;;;;;;92.60;29.80;;;;;;;5.55;100.00;102920.31;5267470;28;20035;-81
2022/01/29 01:57:53;;;;;;;91.68;26.88;;;;;;;5.58;100.00;102912.19;5267852;28;20027;-80
2022/01/29 02:00:26;;;;;;;98.30;28.10;;;;;;;5.53;100.00;102906.25;5267342;28;20015;-81
2022/01/29 02:02:57;;;;;;;89.63;27.42;;;;;;;5.58;100.00;102914.84;5267417;28;20110;-81
2022/01/29 02:05:27;;;;;;;91.80;26.48;;;;;;;5.64;100.00;102903.84;5286381;28;20542;-81
2022/01/29 02:08:01;;;;;;;88.03;29.75;;;;;;;5.63;100.00;102891.47;5285804;28;20027;-81
2022/01/29 02:10:48;;;;;;;90.00;26.92;;;;;;;5.72;100.00;102904.25;5286042;28;20031;-81
2022/01/29 02:13:28;;;;;;;80.85;25.55;;;;;;;5.76;100.00;102887.19;5269256;28;20083;-81
2022/01/29 02:16:14;;;;;;;91.82;29.45;;;;;;;5.78;100.00;102885.31;5269884;28;20016;-81
2022/01/29 02:19:02;;;;;;;79.50;26.52;;;;;;;5.77;100.00;102880.91;5286002;28;20487;-81
2022/01/29 02:21:36;;;;;;;82.07;26.70;;;;;;;5.86;100.00;102874.22;5286357;28;20301;-81
2022/01/29 02:24:07;;;;;;;71.20;25.08;;;;;;;5.84;100.00;102868.97;5285427;28;20478;-81
2022/01/29 02:26:38;;;;;;;80.57;26.25;;;;;;;5.88;100.00;102862.53;5267764;28;20055;-81
2022/01/29 02:29:08;;;;;;;84.47;26.85;;;;;;;5.82;100.00;102859.34;5286246;28;20020;-81
2022/01/29 02:31:52;;;;;;;90.72;26.17;;;;;;;5.84;100.00;102847.66;5258266;28;20028;-81
2022/01/29 02:34:23;;;;;;;80.55;27.88;;;;;;;5.87;100.00;102851.94;5255507;28;20400;-81
2022/01/29 02:36:55;;;;;;;81.47;25.95;;;;;;;5.88;100.00;102838.56;5288032;28;20038;-81
2022/01/29 02:39:25;;;;;;;86.20;25.38;;;;;;;5.88;100.00;102849.22;5272511;28;20030;-80
2022/01/29 02:41:58;;;;;;;75.40;26.70;;;;;;;5.84;100.00;102839.69;5255533;28;20027;-81
2022/01/29 02:44:30;;;;;;;79.88;26.02;;;;;;;5.86;100.00;102834.25;5290583;28;20038;-81
2022/01/29 02:47:15;;;;;;;75.57;23.35;;;;;;;5.86;100.00;102836.91;5290137;28;20027;-81
2022/01/29 02:49:47;;;;;;;85.65;26.02;;;;;;;5.89;100.00;102832.28;5290351;28;20019;-81
2022/01/29 02:52:18;;;;;;;79.68;26.20;;;;;;;5.94;100.00;102832.91;5290663;28;20039;-81
2022/01/29 02:54:49;;;;;;;86.32;25.35;;;;;;;5.94;100.00;102838.25;5290543;28;20498;-81
2022/01/29 02:57:19;;;;;;;83.45;27.13;;;;;;;5.93;100.00;102844.53;5272170;28;20034;-81
2022/01/29 02:59:51;;;;;;;87.63;27.90;;;;;;;5.94;100.00;102826.72;5271578;28;20035;-82
2022/01/29 03:02:22;;;;;;;81.22;25.60;;;;;;;5.97;100.00;102831.84;5271967;28;20024;-81
2022/01/29 03:04:52;;;;;;;80.10;24.67;;;;;;;5.99;100.00;102829.13;5289687;28;20026;-81
2022/01/29 03:07:23;;;;;;;86.28;25.20;;;;;;;5.95;100.00;102828.44;5272136;28;20444;-82
2022/01/29 03:09:55;;;;;;;82.55;25.13;;;;;;;5.98;100.00;102825.59;5290111;28;20028;-81
2022/01/29 03:12:26;;;;;;;76.35;24.30;;;;;;;6.03;100.00;102828.88;5289850;28;20473;-81
2022/01/29 03:14:56;;;;;;;66.45;24.17;;;;;;;6.02;100.00;102823.59;5272056;28;20023;-83
2022/01/29 03:17:27;;;;;;;75.05;24.95;;;;;;;6.02;100.00;102815.59;5290714;28;20532;-80
2022/01/29 03:19:58;;;;;;;69.45;22.52;;;;;;;6.07;100.00;102818.88;5290102;28;20102;-79
2022/01/29 03:22:29;;;;;;;63.83;22.10;;;;;;;6.06;100.00;102819.81;5289948;28;20054;-78
2022/01/29 03:24:59;;;;;;;68.05;21.52;;;;;;;6.06;100.00;102817.16;5289563;28;20027;-78
2022/01/29 03:27:30;;;;;;;69.60;23.38;;;;;;;6.11;100.00;102810.59;5287508;28;20024;-78
2022/01/29 03:30:01;;;;;;;80.60;24.35;;;;;;;6.10;100.00;102814.22;5285553;28;20417;-78
2022/01/29 03:32:32;;;;;;;72.00;22.38;;;;;;;6.10;100.00;102808.91;5267646;28;20168;-78
2022/01/29 03:35:03;;;;;;;70.53;23.08;;;;;;;6.11;100.00;102809.75;5278081;28;20040;-78
2022/01/29 03:37:34;;;;;;;69.28;22.92;;;;;;;6.11;100.00;102805.28;5270004;28;20027;-78
2022/01/29 03:40:07;;;;;;;74.60;21.95;;;;;;;6.12;100.00;102800.81;5261306;28;20474;-78
2022/01/29 03:42:44;;;;;;;71.40;24.08;;;;;;;6.10;100.00;102798.25;5288736;28;20027;-78
2022/01/29 03:45:19;;;;;;;64.95;22.33;;;;;;;6.13;100.00;102794.56;5287505;28;20535;-78
2022/01/29 03:47:49;;;;;;;68.38;22.55;;;;;;;6.15;100.00;102792.63;5287018;28;20106;-78
2022/01/29 03:50:20;;;;;;;74.57;23.10;;;;;;;6.18;100.00;102789.81;5268868;28;20026;-78
2022/01/29 03:52:50;;;;;;;71.28;23.40;;;;;;;6.19;100.00;102788.84;5268128;28;20430;-79
2022/01/29 03:55:21;;;;;;;74.82;23.70;;;;;;;6.19;100.00;102792.38;5267011;28;20035;-78
2022/01/29 03:57:51;;;;;;;69.82;22.02;;;;;;;6.19;100.00;102783.53;5266262;28;20024;-78
2022/01/29 04:00:22;;;;;;;76.15;24.95;;;;;;;6.23;100.00;102779.72;5266335;28;20108;-78
2022/01/29 04:02:52;;;;;;;84.90;28.48;;;;;;;6.29;100.00;102784.69;5283295;28;20051;-78
2022/01/29 04:05:26;;;;;;;72.22;24.98;;;;;;;6.26;100.00;102784.88;5281689;28;20380;-78
2022/01/29 04:07:56;;;;;;;68.30;24.17;;;;;;;6.32;100.00;102779.16;5268437;28;20111;-78
2022/01/29 04:10:28;;;;;;;69.60;23.88;;;;;;;6.33;100.00;102785.38;5265962;28;20027;-78
2022/01/29 04:12:59;;;;;;;71.22;23.85;;;;;;;6.36;100.00;102780.69;5248070;28;20032;-78
2022/01/29 04:15:29;;;;;;;69.22;23.75;;;;;;;6.37;100.00;102776.22;5266249;28;20042;-78
2022/01/29 04:18:00;;;;;;;70.78;22.50;;;;;;;6.39;100.00;102777.88;5266551;28;20032;-78
2022/01/29 04:20:31;;;;;;;65.18;27.52;;;;;;;6.46;100.00;102775.66;5266282;28;20020;-78
2022/01/29 04:23:01;;;;;;;58.20;22.58;;;;;;;6.48;100.00;102773.78;5266314;28;20024;-78
2022/01/29 04:25:32;;;;;;;66.80;25.50;;;;;;;6.54;100.00;102775.22;5265893;28;20506;-77
2022/01/29 04:28:04;;;;;;;59.00;21.70;;;;;;;6.48;100.00;102763.97;5266119;28;20386;-78
2022/01/29 04:30:43;;;;;;;62.13;22.55;;;;;;;6.54;100.00;102761.91;5266882;28;20107;-78
2022/01/29 04:36:03;;;;;;;56.63;20.65;;;;;;;6.53;100.00;102750.38;5276708;28;20024;-78
2022/01/29 04:38:34;;;;;;;62.60;22.30;;;;;;;6.54;100.00;102757.41;5268458;28;20099;-78
2022/01/29 04:41:05;;;;;;;60.83;21.33;;;;;;;6.57;100.00;102762.53;5286902;28;20020;-78
2022/01/29 04:43:36;;;;;;;58.92;22.15;;;;;;;6.56;100.00;102760.84;5286501;28;20028;-78
2022/01/29 04:46:07;;;;;;;57.60;21.00;;;;;;;6.62;100.00;102751.59;5286336;28;20019;-78
2022/01/29 04:48:37;;;;;;;61.05;20.25;;;;;;;6.66;100.00;102755.78;5286475;28;20133;-78
2022/01/29 04:51:08;;;;;;;54.42;20.38;;;;;;;6.60;100.00;102754.38;5286796;28;20019;-78
2022/01/29 04:53:40;;;;;;;48.08;18.20;;;;;;;6.60;100.00;102749.03;5286559;28;20019;-78
2022/01/29 04:56:11;;;;;;;54.13;21.27;;;;;;;6.65;100.00;102744.28;5286230;28;20073;-78
2022/01/29 04:58:41;;;;;;;56.10;19.67;;;;;;;6.69;100.00;102744.94;5286196;28;20024;-78
2022/01/29 05:01:12;;;;;;;47.97;19.63;;;;;;;6.69;100.00;102737.81;5285464;28;20088;-78
2022/01/29 05:03:42;;;;;;;50.55;19.65;;;;;;;6.71;100.00;102743.88;5288183;28;20066;-77
2022/01/29 05:06:12;;;;;;;43.50;17.73;;;;;;;6.77;100.00;102742.66;5280260;28;20050;-78
2022/01/29 05:08:43;;;;;;;44.60;18.35;;;;;;;6.78;100.00;102740.84;5265312;28;20027;-78
2022/01/29 05:11:15;;;;;;;49.85;18.52;;;;;;;6.76;100.00;102730.25;5265375;28;20032;-78
2022/01/29 05:13:46;;;;;;;44.80;17.95;;;;;;;6.74;100.00;102738.38;5247068;28;20470;-78
2022/01/29 05:27:32;;;;;;;38.83;16.70;;;;;;;6.94;100.00;102715.78;5272527;28;20467;-77
2022/01/29 05:30:02;;;;;;;40.20;16.52;;;;;;;6.96;100.00;102718.34;5267639;28;20043;-77
2022/01/29 05:32:33;;;;;;;38.45;16.50;;;;;;;6.94;100.00;102714.94;5269333;28;20085;-77
2022/01/29 05:35:04;;;;;;;40.55;16.52;;;;;;;7.01;100.00;102717.09;5281267;28;20506;-78
2022/01/29 05:37:34;;;;;;;40.30;17.08;;;;;;;7.01;100.00;102709.09;5286128;28;20515;-78
2022/01/29 05:40:05;;;;;;;41.05;16.92;;;;;;;7.03;100.00;102708.13;5285481;28;20119;-78
2022/01/29 05:42:35;;;;;;;41.15;17.55;;;;;;;7.09;100.00;102721.09;5274989;28;20027;-79
2022/01/29 05:45:06;;;;;;;37.58;16.13;;;;;;;7.05;100.00;102703.56;5264816;28;20100;-79
2022/01/29 05:47:37;;;;;;;43.40;18.10;;;;;;;7.11;100.00;102706.69;5247651;28;20424;-79
2022/01/29 05:50:08;;;;;;;38.00;16.75;;;;;;;7.14;100.00;102709.19;5265200;28;20494;-78
2022/01/29 05:52:38;;;;;;;39.08;16.33;;;;;;;7.17;100.00;102708.97;5267440;28;20027;-78
2022/01/29 05:55:09;;;;;;;36.47;16.65;;;;;;;7.16;100.00;102703.72;5286919;28;20429;-80
2022/01/29 05:57:39;;;;;;;41.60;16.33;;;;;;;7.16;100.00;102695.72;5288106;28;20431;-80
2022/01/29 06:00:10;;;;;;;38.25;16.85;;;;;;;7.20;100.00;102703.44;5288971;28;20072;-80
2022/01/29 06:02:41;;;;;;;36.13;16.00;;;;;;;7.20;100.00;102691.91;5284986;28;20027;-80
2022/01/29 06:05:11;;;;;;;42.85;21.25;;;;;;;7.27;100.00;102695.88;5259583;28;20024;-80
2022/01/29 06:07:42;;;;;;;38.60;16.40;;;;;;;7.30;100.00;102692.16;5252110;28;20084;-80
2022/01/29 06:10:12;;;;;;;32.53;14.68;;;;;;;7.25;100.00;102687.13;5264926;28;20098;-83
2022/01/29 06:12:43;;;;;;;33.45;15.95;;;;;;;7.27;100.00;102687.88;5252558;28;20028;-78
2022/01/29 06:15:13;;;;;;;35.63;15.90;;;;;;;7.33;100.00;102703.50;5268588;28;20024;-79
2022/01/29 06:17:44;;;;;;;37.50;17.38;;;;;;;7.37;100.00;102685.44;5251550;28;20510;-78
2022/01/29 06:20:14;;;;;;;41.22;17.15;;;;;;;7.37;100.00;102680.97;5269931;28;20023;-78
2022/01/29 06:22:45;;;;;;;35.58;15.68;;;;;;;7.41;100.00;102694.97;5269691;28;20024;-78
2022/01/29 06:25:15;;;;;;;31.95;14.85;;;;;;;7.26;100.00;102694.16;5269329;28;20468;-81
2022/01/29 06:27:46;;;;;;;39.63;15.82;;;;;;;7.30;100.00;102693.00;5270826;28;20107;-78
2022/01/29 06:30:17;;;;;;;37.45;16.08;;;;;;;7.30;100.00;102693.00;5268347;28;20134;-78
2022/01/29 06:32:47;;;;;;;36.10;15.50;;;;;;;7.33;100.00;102686.59;5283767;28;20016;-80
2022/01/29 06:35:18;;;;;;;28.02;14.20;;;;;;;7.36;100.00;102686.41;5272951;28;20024;-80
2022/01/29 06:37:48;;;;;;;30.58;13.75;;;;;;;7.34;100.00;102689.19;5273609;28;20020;-80
2022/01/29 06:40:19;;;;;;;29.95;14.32;;;;;;;7.34;100.00;102683.00;5272802;28;20023;-80
2022/01/29 06:42:49;;;;;;;35.85;15.20;;;;;;;7.54;100.00;102682.53;5274422;28;20032;-77
2022/01/29 06:45:19;;;;;;;30.98;15.02;;;;;;;7.62;100.00;102679.34;5293321;28;20039;-77
2022/01/29 06:47:50;;;;;;;28.20;13.23;;;;;;;7.65;100.00;102690.69;5292761;28;20038;-80
2022/01/29 06:50:21;;;;;;;29.38;13.65;;;;;;;7.68;100.00;102668.25;5273188;28;20034;-80
2022/01/29 06:52:51;;;;;;;27.08;13.15;;;;;;;7.65;100.00;102671.13;5273729;28;20125;-79
2022/01/29 06:55:22;;;;;;;29.98;13.93;;;;;;;7.70;100.00;102674.34;5269685;28;20107;-79
2022/01/29 06:57:53;;;;;;;31.25;13.43;;;;;;;7.68;100.00;102668.25;5251722;28;20032;-79
2022/01/29 07:00:24;;;;;;;29.33;13.30;;;;;;;7.74;100.00;102675.88;5235675;28;20032;-80
2022/01/29 07:02:54;;;;;;;31.23;17.45;;;;;;;7.77;100.00;102676.50;5276229;28;20502;-78
2022/01/29 07:05:25;;;;;;;27.58;12.50;;;;;;;7.79;100.00;102668.41;5279027;28;20016;-78
2022/01/29 07:07:55;;;;;;;29.38;13.48;;;;;;;7.86;100.00;102663.47;5278462;28;20038;-78
2022/01/29 07:10:26;;;;;;;28.60;14.07;;;;;;;7.88;100.00;102666.91;5249307;28;20024;-78
2022/01/29 07:12:57;;;;;;;27.35;12.43;;;;;;;7.91;100.00;102664.88;5267877;28;20205;-78
2022/01/29 07:15:27;;;;;;;28.65;13.48;;;;;;;7.94;100.00;102659.34;5267149;28;20497;-78
2022/01/29 07:17:57;;;;;;;24.52;12.35;;;;;;;7.98;100.00;102662.63;5267620;28;20024;-78
2022/01/29 07:20:28;;;;;;;28.88;14.57;;;;;;;8.03;100.00;102658.72;5279678;28;20051;-78
2022/01/29 07:22:58;;;;;;;25.38;12.05;;;;;;;8.05;100.00;102663.94;5289002;28;20045;-77
2022/01/29 07:25:29;;;;;;;31.45;14.63;;;;;;;8.04;100.00;102654.22;5278391;28;20563;-77
2022/01/29 07:27:59;;;;;;;29.88;13.07;;;;;;;8.13;100.00;102652.72;5273515;28;20030;-78
2022/01/29 07:30:30;;;;;;;30.08;11.90;;;;;;;8.15;100.00;102643.63;5275799;28;20051;-77
2022/01/29 07:33:00;;;;;;;23.98;10.73;;;;;;;8.17;100.00;102657.72;5281875;28;20024;-77
2022/01/29 07:35:32;;;;;;;24.55;12.18;;;;;;;8.19;100.00;102646.97;5282234;28;20030;-77
2022/01/29 07:38:02;;;;;;;27.15;12.50;;;;;;;8.20;100.00;102646.00;5277122;28;20066;-78
2022/01/29 07:40:33;;;;;;;25.98;11.85;;;;;;;8.27;100.00;102655.28;5272410;28;20043;-78
2022/01/29 07:43:03;;;;;;;29.75;12.70;;;;;;;8.28;100.00;102649.84;5266159;28;20562;-77
2022/01/29 07:45:34;;;;;;;21.83;10.27;;;;;;;8.35;100.00;102654.75;5270968;28;20471;-77
2022/01/29 07:48:04;;;;;;;26.38;11.80;;;;;;;8.34;100.00;102656.56;5280995;28;20114;-78
2022/01/29 07:50:36;;;;;;;31.42;12.48;;;;;;;8.35;100.00;102658.28;5273938;28;20016;-78
2022/01/29 07:53:06;;;;;;;24.50;12.23;;;;;;;8.38;100.00;102654.56;5282277;28;20035;-77
2022/01/29 07:55:38;;;;;;;25.20;10.98;;;;;;;8.37;100.00;102656.38;5275076;28;20300;-84
2022/01/29 07:58:10;;;;;;;22.98;12.02;;;;;;;8.43;100.00;102647.91;5291038;28;20047;-78
2022/01/29 08:00:40;;;;;;;27.02;11.38;;;;;;;8.41;100.00;102644.50;5288655;28;20024;-78
2022/01/29 08:03:11;;;;;;;31.77;11.73;;;;;;;8.48;100.00;102650.25;5271227;28;20089;-78
2022/01/29 08:05:41;;;;;;;24.83;11.23;;;;;;;8.48;100.00;102648.47;5274185;28;20020;-78
2022/01/29 08:08:11;;;;;;;23.63;11.00;;;;;;;8.49;100.00;102654.69;5287771;28;20024;-77
2022/01/29 08:10:42;;;;;;;23.55;10.93;;;;;;;8.50;100.00;102648.34;5271294;28;20027;-78
2022/01/29 08:13:12;;;;;;;27.73;13.55;;;;;;;8.49;100.00;102650.19;5294841;28;20047;-77
2022/01/29 08:15:43;;;;;;;24.42;12.38;;;;;;;8.50;100.00;102643.84;5271321;28;20081;-79
2022/01/29 08:18:14;;;;;;;26.98;12.68;;;;;;;8.48;100.00;102648.47;5283570;28;20031;-80
2022/01/29 08:20:44;;;;;;;33.45;14.07;;;;;;;8.49;100.00;102643.97;5291107;28;20027;-79
2022/01/29 08:23:15;;;;;;;25.33;11.77;;;;;;;8.48;100.00;102643.13;5271701;28;20023;-79
2022/01/29 08:25:45;;;;;;;26.38;12.40;;;;;;;8.52;100.00;102635.72;5289194;28;20618;-79
2022/01/29 08:28:16;;;;;;;27.52;11.82;;;;;;;8.54;100.00;102633.81;5290214;28;20027;-82
2022/01/29 08:30:47;;;;;;;27.27;13.02;;;;;;;8.56;100.00;102635.38;5286915;28;20108;-78
2022/01/29 08:33:18;;;;;;;29.23;12.27;;;;;;;8.59;100.00;102628.97;5290373;28;20665;-79
2022/01/29 08:35:49;;;;;;;28.15;12.27;;;;;;;8.65;100.00;102630.34;5293120;28;20023;-80
2022/01/29 08:38:21;;;;;;;27.05;13.00;;;;;;;8.60;100.00;102621.81;5274536;28;20126;-79
2022/01/29 08:40:53;;;;;;;25.30;11.48;;;;;;;8.67;100.00;102623.91;5292005;28;20031;-79
2022/01/29 08:43:24;;;;;;;29.75;12.02;;;;;;;8.68;100.00;102617.59;5292416;28;20439;-79
2022/01/29 08:45:55;;;;;;;28.77;13.52;;;;;;;8.68;100.00;102620.25;5292143;28;20076;-79
2022/01/29 08:48:26;;;;;;;26.65;11.80;;;;;;;8.67;100.00;102623.91;5290235;28;20032;-79
2022/01/29 08:50:56;;;;;;;27.60;12.18;;;;;;;8.68;100.00;102619.41;5288769;28;20454;-80
2022/01/29 08:53:27;;;;;;;24.35;12.90;;;;;;;8.61;100.00;102620.84;5288823;28;20051;-80
2022/01/29 08:55:57;;;;;;;31.10;13.40;;;;;;;8.59;100.00;102614.75;5287547;28;20035;-80
2022/01/29 08:58:28;;;;;;;26.98;13.32;;;;;;;8.54;100.00;102613.25;5288226;28;20114;-79
2022/01/29 09:00:58;;;;;;;23.70;11.15;;;;;;;8.54;100.00;102613.25;5272115;28;20136;-83
2022/01/29 09:03:29;;;;;;;27.25;11.90;;;;;;;8.52;100.00;102606.28;5267819;28;20038;-79
2022/01/29 09:06:00;;;;;;;23.75;12.98;;;;;;;8.55;100.00;102604.25;5275371;28;20020;-80
2022/01/29 09:08:31;;;;;;;22.55;11.07;;;;;;;8.52;100.00;102607.13;5267765;28;20110;-81
2022/01/29 09:11:02;;;;;;;24.38;11.85;;;;;;;8.48;100.00;102607.47;5273844;28;20042;-80
2022/01/29 09:13:32;;;;;;;23.92;11.10;;;;;;;8.48;100.00;102603.00;5265927;28;20598;-79
2022/01/29 09:16:03;;;;;;;23.42;10.90;;;;;;;8.50;100.00;102610.91;5266291;28;20480;-79
2022/01/29 09:18:34;;;;;;;22.23;9.93;;;;;;;8.52;100.00;102620.53;5265409;28;20035;-79
2022/01/29 09:21:05;;;;;;;25.23;10.52;;;;;;;8.54;100.00;102617.75;5278422;28;20325;-79
2022/01/29 09:23:35;;;;;;;30.48;10.05;;;;;;;8.53;100.00;102624.94;5265171;28;20024;-80
2022/01/29 09:26:05;;;;;;;20.23;9.23;;;;;;;8.54;100.00;102613.25;5264714;28;20008;-80
2022/01/29 09:28:36;;;;;;;21.77;9.80;;;;;;;8.59;100.00;102607.56;5265289;28;20038;-80
2022/01/29 09:31:06;;;;;;;20.25;9.90;;;;;;;8.58;100.00;102616.53;5266188;28;20470;-79
2022/01/29 09:33:38;;;;;;;19.23;8.75;;;;;;;8.61;100.00;102610.97;5253084;28;20399;-80
2022/01/29 09:36:09;;;;;;;22.88;11.35;;;;;;;8.65;100.00;102615.16;5269632;28;20563;-82
2022/01/29 09:38:39;;;;;;;21.38;9.75;;;;;;;8.66;100.00;102602.63;5286976;28;20031;-81
2022/01/29 09:41:10;;;;;;;15.90;8.68;;;;;;;8.68;100.00;102609.56;5278884;28;20012;-82
2022/01/29 09:43:43;;;;;;;21.00;9.05;;;;;;;8.68;100.00;102603.34;5264954;28;20114;-81
2022/01/29 09:46:16;;;;;;;17.10;8.98;;;;;;;8.75;100.00;102610.00;5276186;28;20103;-81
2022/01/29 09:48:46;;;;;;;14.63;8.02;;;;;;;8.78;100.00;102602.56;5247509;28;20028;-81
2022/01/29 09:51:17;;;;;;;17.33;9.00;;;;;;;8.85;100.00;102597.66;5265266;28;20032;-82
2022/01/29 09:53:47;;;;;;;18.88;8.48;;;;;;;8.87;100.00;102605.56;5263687;28;20421;-82
2022/01/29 09:56:18;;;;;;;17.83;9.07;;;;;;;8.94;100.00;102598.81;5258237;28;20507;-83
2022/01/29 09:58:50;;;;;;;17.02;8.27;;;;;;;8.99;100.00;102607.34;5248154;28;20051;-81
2022/01/29 10:01:20;;;;;;;18.23;8.75;;;;;;;9.07;100.00;102616.50;5262640;28;20451;-84
2022/01/29 10:04:04;;;;;;;18.58;8.50;;;;;;;9.12;100.00;102626.88;5268247;28;20184;-81
2022/01/29 10:06:36;;;;;;;15.38;6.88;;;;;;;9.11;100.00;102627.84;5282569;28;20099;-82
2022/01/29 10:09:11;;;;;;;14.27;7.47;;;;;;;9.18;100.00;102633.59;5277980;28;20020;-82
2022/01/29 10:11:42;;;;;;;15.30;7.53;;;;;;;9.18;100.00;102637.13;5272825;28;20016;-82
2022/01/29 10:14:12;;;;;;;16.60;7.13;;;;;;;9.14;100.00;102630.31;5278076;28;20584;-82
2022/01/29 10:16:43;;;;;;;15.95;7.18;;;;;;;9.19;100.00;102620.13;5248743;28;20024;-82
2022/01/29 10:19:14;;;;;;;12.35;6.25;;;;;;;9.33;100.00;102613.69;5248638;28;20078;-82
2022/01/29 10:21:47;;;;;;;18.30;6.18;;;;;;;9.41;100.00;102607.78;5267109;28;20035;-82
2022/01/29 10:24:19;;;;;;;20.63;12.23;;;;;;;9.51;100.00;102614.16;5267095;28;20020;-83
2022/01/29 10:26:51;;;;;;;12.50;6.97;;;;;;;9.51;100.00;102606.97;5269594;28;20020;-83
2022/01/29 10:29:26;;;;;;;19.05;10.48;;;;;;;9.54;100.00;102604.06;5270292;28;20028;-82
2022/01/29 10:32:00;;;;;;;14.00;6.07;;;;;;;9.62;100.00;102600.78;5264559;28;20016;-84
2022/01/29 10:34:33;;;;;;;12.20;6.28;;;;;;;9.66;100.00;102596.91;5270298;28;20391;-79
2022/01/29 10:37:23;;;;;;;14.00;5.55;;;;;;;9.70;100.00;102593.03;5277487;28;20038;-80
2022/01/29 10:39:57;;;;;;;9.68;4.50;;;;;;;9.71;100.00;102588.50;5288796;28;20054;-79
2022/01/29 10:42:30;;;;;;;14.13;6.15;;;;;;;9.79;100.00;102572.72;5256810;28;20036;-79
2022/01/29 10:45:03;;;;;;;13.00;5.03;;;;;;;9.81;100.00;102573.44;5258403;28;20047;-82
2022/01/29 10:48:10;;;;;;;10.77;4.45;;;;;;;9.94;100.00;102559.91;5276733;28;20491;-80
2022/01/29 10:50:40;;;;;;;9.65;3.80;;;;;;;10.06;100.00;102548.22;5285624;28;20104;-81
2022/01/29 10:53:29;;;;;;;8.50;4.45;;;;;;;10.26;100.00;102541.31;5287130;28;20273;-81
2022/01/29 10:56:01;;;;;;;11.52;4.07;;;;;;;10.29;100.00;102530.31;5288338;28;20080;-81
2022/01/29 10:58:53;;;;;;;6.82;4.25;;;;;;;10.42;100.00;102539.09;5274134;28;20083;-81
2022/01/29 11:01:23;;;;;;;6.53;3.10;;;;;;;10.48;100.00;102540.44;5256266;28;20405;-81
2022/01/29 11:03:56;;;;;;;8.43;2.63;;;;;;;10.40;100.00;102538.38;5253961;28;20073;-80
2022/01/29 11:06:33;;;;;;;5.10;2.75;;;;;;;10.39;100.00;102528.59;5280740;28;20016;-80
2022/01/29 11:09:04;;;;;;;6.85;2.70;;;;;;;10.45;100.00;102536.19;5250345;28;20464;-80
2022/01/29 11:11:35;;;;;;;8.80;2.65;;;;;;;10.41;100.00;102534.72;5250570;28;20016;-80
2022/01/29 11:14:10;;;;;;;5.82;2.80;;;;;;;10.42;100.00;102524.84;5233639;28;20022;-80
2022/01/29 11:16:41;;;;;;;;;;;;;;;10.33;100.00;102538.00;5284617;28;20034;-80
2022/01/29 11:19:13;;;;;;;5.80;2.63;;;;;;;10.36;100.00;102536.91;5289102;28;19916;-80
2022/01/29 11:21:47;;;;;;;7.20;3.03;;;;;;;10.47;100.00;102542.25;5270470;28;20023;-80
2022/01/29 11:24:21;;;;;;;5.70;2.58;;;;;;;10.47;100.00;102539.56;5250485;28;20022;-80
2022/01/29 11:26:52;;;;;;;5.97;2.65;;;;;;;10.45;100.00;102536.19;5287968;28;20041;-80
2022/01/29 11:29:26;;;;;;;6.68;2.40;;;;;;;10.39;100.00;102528.59;5288732;28;20371;-80
2022/01/29 11:32:33;;;;;;;5.45;2.60;;;;;;;10.42;100.00;102522.16;5283424;28;20123;-80
2022/01/29 11:35:17;;;;;;;4.40;2.20;;;;;;;10.49;100.00;102526.91;5264720;28;20391;-82
2022/01/29 11:37:49;;;;;;;9.82;2.95;;;;;;;10.45;100.00;102521.91;5280136;28;20544;-80
2022/01/29 11:40:44;;;;;;;6.20;1.88;;;;;;;10.40;100.00;102516.91;5279795;28;20031;-80
2022/01/29 11:43:30;;;;;;;5.93;2.10;;;;;;;10.43;100.00;102507.75;5280459;28;20027;-79
2022/01/29 11:46:04;;;;;;;5.28;1.92;;;;;;;10.46;100.00;102491.41;5279611;28;20034;-81
2022/01/29 11:48:49;;;;;;;5.55;2.10;;;;;;;10.45;100.00;102479.81;5279919;28;20057;-81